TimeEDT,TemperatureF,Dew PointF,Humidity,Sea Level PressureIn,VisibilityMPH,Wind Direction,Wind SpeedMPH,Gust SpeedMPH,PrecipitationIn,Events,Conditions,WindDirDegrees,DateUTC
12:16 AM,61.2,59.0,93,29.83,10.0,Calm,Calm,-,N/A,,Clear,0,2013-06-26 04:16:00
12:35 AM,60.6,58.3,92,29.83,10.0,Calm,Calm,-,N/A,,Clear,0,2013-06-26 04:35:00
12:55 AM,60.6,59.0,94,29.83,10.0,Calm,Calm,-,N/A,,Clear,0,2013-06-26 04:55:00
1:16 AM,59.4,57.7,94,29.83,7.0,NNE,3.5,-,N/A,,Clear,20,2013-06-26 05:16:00
1:35 AM,59.4,57.9,95,29.83,5.0,Calm,Calm,-,N/A,,Clear,0,2013-06-26 05:35:00
1:55 AM,59.0,57.4,94,29.83,0.8,Calm,Calm,-,N/A,,Mist,0,2013-06-26 05:55:00
2:16 AM,58.6,57.2,95,29.83,0.2,Calm,Calm,-,N/A,Fog,Fog,0,2013-06-26 06:16:00
2:35 AM,58.8,57.4,95,29.82,5.0,Calm,Calm,-,N/A,,Clear,0,2013-06-26 06:35:00
2:55 AM,58.3,56.8,95,29.82,7.0,Calm,Calm,-,N/A,,Clear,0,2013-06-26 06:55:00
3:15 AM,58.3,57.2,96,29.81,10.0,Calm,Calm,-,N/A,,Clear,0,2013-06-26 07:15:00
3:22 AM,58.1,56.7,95,29.81,7.0,Calm,Calm,-,N/A,,Clear,0,2013-06-26 07:22:00
4:03 AM,59.0,57.2,94,29.81,7.0,Calm,Calm,-,N/A,,Clear,0,2013-06-26 08:03:00
4:27 AM,57.2,55.4,94,29.80,4.0,Calm,Calm,-,N/A,,Clear,0,2013-06-26 08:27:00
4:44 AM,57.2,55.4,94,29.80,1.2,Calm,Calm,-,N/A,,Mist,0,2013-06-26 08:44:00
5:04 AM,55.4,53.6,94,29.80,10.0,East,3.5,-,N/A,,Clear,80,2013-06-26 09:04:00
5:26 AM,55.4,53.6,94,29.80,5.0,Calm,Calm,-,N/A,,Clear,0,2013-06-26 09:26:00
5:47 AM,57.2,57.2,100,29.80,4.0,Calm,Calm,-,N/A,,Scattered Clouds,0,2013-06-26 09:47:00
6:02 AM,57.2,55.4,94,29.81,0.2,Calm,Calm,-,N/A,Fog,Fog,0,2013-06-26 10:02:00
6:22 AM,57.2,55.4,94,29.81,0.2,Calm,Calm,-,N/A,Fog,Fog,0,2013-06-26 10:22:00
6:43 AM,57.2,55.4,94,29.82,2.0,Calm,Calm,-,N/A,,Mostly Cloudy,0,2013-06-26 10:43:00
7:02 AM,59.0,57.2,94,29.81,5.0,Calm,Calm,-,N/A,,Clear,0,2013-06-26 11:02:00
7:03 AM,58.8,57.6,96,29.81,7.0,Calm,Calm,-,N/A,,Clear,0,2013-06-26 11:03:00
7:15 AM,60.1,58.8,96,29.81,10.0,Calm,Calm,-,N/A,,Clear,0,2013-06-26 11:15:00
7:35 AM,62.6,61.0,94,29.82,10.0,Calm,Calm,-,N/A,,Clear,0,2013-06-26 11:35:00
7:55 AM,64.4,62.4,93,29.82,10.0,Calm,Calm,-,N/A,,Clear,0,2013-06-26 11:55:00
8:15 AM,65.3,62.6,91,29.82,10.0,Calm,Calm,-,N/A,,Clear,0,2013-06-26 12:15:00
8:35 AM,66.7,63.0,88,29.83,10.0,Calm,Calm,-,N/A,,Clear,0,2013-06-26 12:35:00
8:55 AM,69.3,63.7,82,29.83,10.0,Calm,Calm,-,N/A,,Clear,0,2013-06-26 12:55:00
9:15 AM,72.7,64.4,75,29.83,10.0,Calm,Calm,-,N/A,,Clear,0,2013-06-26 13:15:00
9:35 AM,73.6,64.0,72,29.83,10.0,Calm,Calm,-,N/A,,Clear,0,2013-06-26 13:35:00
9:56 AM,71.8,64.0,77,29.82,10.0,ENE,3.5,-,N/A,,Clear,60,2013-06-26 13:56:00
10:15 AM,73.4,64.6,74,29.82,10.0,NNE,5.8,-,N/A,,Clear,20,2013-06-26 14:15:00
10:36 AM,70.5,63.0,77,29.83,10.0,NNE,4.6,-,N/A,,Clear,30,2013-06-26 14:36:00
10:55 AM,72.0,63.9,76,29.83,10.0,North,3.5,-,N/A,,Clear,10,2013-06-26 14:55:00
11:15 AM,73.9,64.6,72,29.83,10.0,North,3.5,-,N/A,,Clear,10,2013-06-26 15:15:00
11:35 AM,76.1,65.7,70,29.83,10.0,North,6.9,-,N/A,,Clear,10,2013-06-26 15:35:00
11:55 AM,75.4,65.1,70,29.83,10.0,North,5.8,-,N/A,,Clear,360,2013-06-26 15:55:00
12:15 PM,76.3,66.0,70,29.83,10.0,North,5.8,-,N/A,,Clear,10,2013-06-26 16:15:00
12:35 PM,76.6,65.3,68,29.83,10.0,North,6.9,-,N/A,,Clear,10,2013-06-26 16:35:00
12:55 PM,77.2,65.5,67,29.82,10.0,NNE,4.6,-,N/A,,Clear,20,2013-06-26 16:55:00
1:15 PM,78.1,65.7,65,29.81,10.0,North,4.6,-,N/A,,Clear,10,2013-06-26 17:15:00
1:36 PM,78.8,65.7,64,29.81,10.0,NNE,4.6,-,N/A,,Clear,20,2013-06-26 17:36:00
1:55 PM,79.7,65.8,62,29.81,10.0,NNE,5.8,-,N/A,,Clear,30,2013-06-26 17:55:00
2:15 PM,80.1,64.4,59,29.81,10.0,NNE,3.5,-,N/A,,Clear,30,2013-06-26 18:15:00
2:35 PM,81.7,64.8,56,29.80,10.0,NE,6.9,-,N/A,,Clear,50,2013-06-26 18:35:00
2:56 PM,81.3,64.8,57,29.80,10.0,ENE,6.9,-,N/A,,Clear,70,2013-06-26 18:56:00
3:15 PM,79.0,65.8,64,29.79,10.0,ENE,5.8,-,N/A,,Clear,60,2013-06-26 19:15:00
3:35 PM,78.8,65.5,64,29.79,10.0,ENE,10.4,-,N/A,,Clear,60,2013-06-26 19:35:00
3:56 PM,78.3,65.1,64,29.78,10.0,ENE,10.4,-,N/A,,Clear,60,2013-06-26 19:56:00
4:15 PM,78.3,65.5,65,29.78,10.0,ENE,6.9,-,N/A,,Clear,70,2013-06-26 20:15:00
4:36 PM,78.6,65.8,65,29.77,10.0,ENE,9.2,-,N/A,,Clear,60,2013-06-26 20:36:00
4:55 PM,78.8,63.5,59,29.77,10.0,ENE,6.9,-,N/A,,Clear,70,2013-06-26 20:55:00
5:16 PM,80.2,64.2,58,29.77,10.0,ENE,6.9,-,N/A,,Clear,70,2013-06-26 21:16:00
5:35 PM,80.6,63.7,56,29.77,10.0,ENE,8.1,-,N/A,,Clear,60,2013-06-26 21:35:00
5:56 PM,79.2,63.1,58,29.78,10.0,ENE,6.9,-,N/A,,Clear,60,2013-06-26 21:56:00
6:15 PM,77.7,62.8,60,29.77,10.0,NE,4.6,-,N/A,,Clear,50,2013-06-26 22:15:00
6:35 PM,78.1,64.0,62,29.76,10.0,NE,4.6,-,N/A,,Clear,50,2013-06-26 22:35:00
6:56 PM,77.7,63.7,62,29.77,10.0,NE,4.6,-,N/A,,Clear,40,2013-06-26 22:56:00
7:15 PM,76.1,63.5,65,29.76,10.0,ENE,4.6,-,N/A,,Clear,60,2013-06-26 23:15:00
7:35 PM,78.8,62.1,56,29.76,10.0,ENE,4.6,-,N/A,,Clear,70,2013-06-26 23:35:00
7:56 PM,78.6,58.5,50,29.76,10.0,East,6.9,-,N/A,,Clear,90,2013-06-26 23:56:00
8:15 PM,77.2,58.8,53,29.76,10.0,East,3.5,-,N/A,,Clear,90,2013-06-27 00:15:00
8:35 PM,76.3,59.4,56,29.75,10.0,East,5.8,-,N/A,,Clear,90,2013-06-27 00:35:00
8:55 PM,74.7,60.8,62,29.75,10.0,ESE,4.6,-,N/A,,Clear,110,2013-06-27 00:55:00
9:15 PM,73.9,60.8,63,29.75,10.0,Calm,Calm,-,N/A,,Clear,0,2013-06-27 01:15:00
9:36 PM,72.5,61.5,68,29.76,10.0,Calm,Calm,-,N/A,,Clear,0,2013-06-27 01:36:00
9:55 PM,68.7,62.8,81,29.77,10.0,Calm,Calm,-,N/A,,Clear,0,2013-06-27 01:55:00
10:15 PM,69.8,62.6,78,29.77,10.0,SE,3.5,-,N/A,,Scattered Clouds,130,2013-06-27 02:15:00
10:36 PM,72.1,63.0,73,29.77,10.0,SSE,3.5,-,N/A,,Scattered Clouds,160,2013-06-27 02:36:00
10:55 PM,72.5,64.0,75,29.78,10.0,SSW,4.6,-,N/A,,Mostly Cloudy,210,2013-06-27 02:55:00
11:15 PM,71.6,63.7,76,29.78,10.0,West,8.1,-,N/A,,Mostly Cloudy,260,2013-06-27 03:15:00
11:35 PM,70.2,61.7,74,29.78,10.0,Calm,Calm,-,N/A,,Mostly Cloudy,0,2013-06-27 03:35:00
11:55 PM,69.3,61.7,77,29.78,10.0,Calm,Calm,-,N/A,,Scattered Clouds,0,2013-06-27 03:55:00